Medora, North Dakota
Current Conditions -  °F | °C
As of 7:55 PM on Friday 19 Dec 2014 (Local Time) from K20U Reporting Station
Clear Clear  
Wind Chill: 19°   Ceiling: Unl
Heat Index: 25°   Visibility: 10mi
Dew Point: 23°   Wind: 5mph
Humidity: 93%   Direction: 180°S
Pressure: 29.89"   Gusts: NA
Location:  46.91°N, 103.52°W
Report Text: K20U 200255Z AUTO 18004KT 10SM CLR M04/M05 A2989 RMK AO2
Loading
Personal Weather Stations






























Interactive Weather Map New forecast layout! Learn more

10-Day Weather Forecast

Advertisements
Track Severe Weather on mobile